Tiempo atmosférico en la estación meteorológica de Vallehermoso, Alto Igualero, Santa Cruz de Tenerife (1475 m.)



Fecha
DESCASC
Temp. máxima en grados centígrados (hora)
DESCASC
Temp. mínima en grados centígrados (hora)
DESCASC
Temp. media en grados centígrados
DESCASC
Racha de viento máxima en m/sg (hora)
DESCASC
Velocidad máxima media en intervalos de 10 minutos(hora)
DESCASC
Precipitaciones diarias en mm
DESCASC
Precipitaciones de 00:00 a 06:00 en mm
DESCASC
Precipitaciones de 06:00 a 12:00 en mm
DESCASC
Precipitaciones de 12:00 a 18:00 en mm
DESCASC
Precipitaciones de 18:00 a 24:00 en mm
DESCASC
05-04-2020 20.1 (16:40) 8.9 (01:20) 14.5 13.61 (04:20) 10.28 (04:10) 0 0 0 0 0
04-04-2020 15.2 (16:10) 6.8 (05:00) 11 18.61 (01:10) 14.17 (01:10) 0 0 0 0 0
03-04-2020 12.7 (11:50) 8.5 (08:10) 10.6 21.39 (20:50) 15 (20:40) 5.4 0 0 3 2.4
02-04-2020 17.7 (17:00) 8.8 (00:00) 13.3 6.94 (00:10) 6.11 (00:10) 0 0 0 0 0
01-04-2020 17 (16:40) 8.3 (00:00) 12.7 7.5 (23:40) 6.39 (23:40) 0 0 0 0 0
31-03-2020 16.9 (16:30) 7.2 (00:00) 12 11.39 (06:30) 8.89 (00:10) 0 0 0 0 0
30-03-2020 16.4 (16:40) 7.3 (00:00) 11.8 13.89 (21:20) 10 (23:30) 0 0 0 0 0
29-03-2020 15.3 (17:20) 5.3 (00:00) 10.3 8.06 (15:50) 5.28 (03:40) 0 0 0 0 0
28-03-2020 13.2 (16:40) 3.8 (00:00) 8.5 13.06 (00:30) 8.89 (00:10) 0.4 0 0.4 0 0
27-03-2020 11.5 (15:10) 4.3 (00:00) 7.9 14.17 (23:20) 9.72 (20:50) 2 0 0 0.2 1.8
26-03-2020 10 (15:20) 4.7 (00:00) 7.3 13.61 (23:00) 8.61 (23:00) 0 0 0 0 0
25-03-2020 7.8 (13:40) 4 (00:00) 5.9 12.22 (01:50) 8.33 (01:50) 1.4 0.2 0.2 0.6 0.4
24-03-2020 7.8 (14:20) 4.3 (00:00) 6.1 20.83 (00:10) 12.5 (02:20) 1.4 1.4 0 0 0
23-03-2020 6.5 (14:40) 3.3 (00:00) 4.9 28.61 (02:50) 21.39 (02:50) 11.8 2.4 2.6 5 1.8
22-03-2020 8.6 (13:40) 3.3 (05:20) 6 27.22 (23:50) 18.89 (23:50) 2.6 0 0.2 2 0.4
21-03-2020 6.9 (14:40) 3.4 (00:00) 5.2 15.83 (21:00) 11.67 (22:20) 0.6 0.4 0 0 0.2
20-03-2020 7.5 (13:40) 5.5 (00:00) 6.5 17.5 (01:10) 12.5 (01:10) 1.6 0.2 0.2 0 1.2
19-03-2020 8.2 (14:30) 4.5 (00:00) 6.3 26.67 (02:40) 16.94 (02:30) 2.2 0.6 0.8 0.6 0.2
18-03-2020 5.9 (14:30) 4.2 (00:00) 5 23.61 (23:40) 15.83 (18:10) 3.2 2 1.2 0 0
17-03-2020 7 (16:10) 3.9 (00:00) 5.5 23.06 (11:20) 16.94 (07:00) 6.4 0.8 1.8 1 2.8
16-03-2020 7 (13:50) 5 (00:00) 6 25.56 (09:30) 20 (09:20) 4.6 3.2 0.2 0.2 1
15-03-2020 6.5 (15:20) 4.4 (00:00) 5.5 21.11 (21:50) 15 (19:30) 3.8 0.2 1.6 0 2
14-03-2020 12.3 (00:10) 4.4 (00:00) 8.4 16.11 (22:10) 11.67 (23:20) 0 0 0 0 0
13-03-2020 20.5 (13:20) 10.3 (23:50) 15.4 8.06 (04:50) 7.22 (04:40) 0 0 0 0 0
12-03-2020 21.2 (14:40) 14.1 (00:00) 17.7 10.28 (10:50) 7.78 (10:40) 0 0 0 0 0
11-03-2020 20.8 (12:50) 13.7 (00:00) 17.2 9.72 (02:30) 8.61 (03:30) 0 0 0 0 0
10-03-2020 20.5 (15:10) 12.2 (00:00) 16.3 13.89 (01:00) 10.56 (00:50) 0 0 0 0 0
09-03-2020 17.6 (12:30) 11.1 (00:00) 14.4 15.28 (11:10) 11.39 (09:50) 0 0 0 0 0

Gráficas

Temp. máximas Temp. mínimas Temp. medias Precipitaciones Rachas de viento máximas Velocidades máximas media en intervalos de 10 minutos

Datos horarios

Fecha y hora oficial Temperatura (ºC) Velocidad del viento (km/h) Dirección del viento Racha (km/h) Dirección de racha Precipitación (mm) Presión (hPa) Tendencia (hPa) Humedad (%)
2020-04-07 23:00:00 14.9 34 Norte 43 Nordeste 0 -- -- 21
2020-04-07 22:00:00 14.5 33 Nordeste 44 Norte 0 -- -- 22
2020-04-07 21:00:00 14.9 34 Norte 44 Norte 0 -- -- 21
2020-04-07 20:00:00 15.8 35 Norte 47 Norte 0 -- -- 20
2020-04-07 19:00:00 16.6 31 Norte 48 Norte 0 -- -- 27
2020-04-07 18:00:00 17.6 30 Norte 42 Norte 0 -- -- 22
2020-04-07 17:00:00 18.3 28 Norte 42 Norte 0 -- -- 23
2020-04-07 16:00:00 18.7 22 Norte 35 Norte 0 -- -- 25
2020-04-07 15:00:00 18.8 22 Norte 35 Noroeste 0 -- -- 33
2020-04-07 14:00:00 18.7 18 Norte 32 Norte 0 -- -- 28
2020-04-07 13:00:00 18.6 18 Norte 32 Norte 0 -- -- 30
2020-04-07 12:00:00 18.1 16 Norte 31 Norte 0 -- -- 31
2020-04-07 11:00:00 16.6 21 Norte 34 Norte 0 -- -- 23
2020-04-07 10:00:00 15.3 26 Norte 35 Norte 0 -- -- 23
2020-04-07 09:00:00 14.9 31 Norte 36 Norte 0 -- -- 21
2020-04-07 08:00:00 14.7 31 Norte 37 Norte 0 -- -- 20
2020-04-07 07:00:00 14.5 31 Norte 38 Norte 0 -- -- 20
2020-04-07 06:00:00 14.1 28 Norte 36 Norte 0 -- -- 21
2020-04-07 05:00:00 14.6 26 Norte 30 Norte 0 -- -- 21
2020-04-07 04:00:00 13.7 24 Norte 27 Norte 0 -- -- 21
2020-04-07 03:00:00 13.7 20 Norte 27 Noroeste 0 -- -- 24
2020-04-07 02:00:00 14.5 25 Norte 27 Norte 0 -- -- 23
2020-04-07 01:00:00 14 21 Norte 23 Norte 0 -- -- 25
2020-04-07 00:00:00 15.8 19 Norte 23 Norte 0 -- -- 22
2020-04-06 23:00:00 16.1 18 Norte 20 Norte 0 -- -- 24
2020-04-06 22:00:00 15.6 11 Noroeste 18 Noroeste 0 -- -- 27
2020-04-06 21:00:00 14.3 16 Noroeste 19 Noroeste 0 -- -- 25
2020-04-06 20:00:00 16.8 15 Noroeste 21 Noroeste 0 -- -- 39
2020-04-06 19:00:00 18.9 14 Noroeste 23 Oeste 0 -- -- 54
2020-04-06 18:00:00 20 15 Oeste 22 Noroeste 0 -- -- 67
2020-04-06 17:00:00 21.2 10 Oeste 19 Noroeste 0 -- -- 60
2020-04-06 16:00:00 20.3 6 Noroeste 18 Oeste 0 -- -- 70
2020-04-06 15:00:00 20.5 8 Oeste 22 Noroeste 0 -- -- 62
2020-04-06 14:00:00 19.9 12 Noroeste 22 Norte 0 -- -- 49
2020-04-06 13:00:00 19.4 14 Noroeste 22 Noroeste 0 -- -- 28
2020-04-06 12:00:00 17.5 12 Norte 21 Noroeste 0 -- -- 34
2020-04-06 11:00:00 16 15 Norte 26 Noroeste 0 -- -- 33
2020-04-06 10:00:00 13.3 10 Norte 17 Norte 0 -- -- 45
2020-04-06 09:00:00 12.3 15 Noroeste 21 Noroeste 0 -- -- 60
2020-04-06 08:00:00 11.9 20 Noroeste 24 Noroeste 0 -- -- 60
2020-04-06 07:00:00 12.2 22 Noroeste 28 Noroeste 0 -- -- 60
2020-04-06 06:00:00 12.3 22 Noroeste 28 Noroeste 0 -- -- 58
2020-04-06 05:00:00 12.8 24 Noroeste 28 Noroeste 0 -- -- 50
2020-04-06 04:00:00 12.9 22 Noroeste 26 Noroeste 0 -- -- 53
2020-04-06 03:00:00 12.9 19 Noroeste 23 Norte 0 -- -- 56
2020-04-06 02:00:00 13 22 Norte 24 Norte 0 -- -- 60
2020-04-06 01:00:00 13 21 Norte 26 Norte 0 -- -- 62
2020-04-06 00:00:00 13.1 22 Norte 28 Norte 0 -- -- 61
2020-04-05 23:00:00 13 24 Norte 29 Norte 0 -- -- 62
2020-04-05 22:00:00 12.9 25 Norte 28 Norte 0 -- -- 65
2020-04-05 21:00:00 13.1 23 Norte 27 Norte 0 -- -- 65
2020-04-05 20:00:00 14.8 16 Norte 25 Norte 0 -- -- 60
2020-04-05 19:00:00 17.7 9 Noroeste 19 Oeste 0 -- -- 57
2020-04-05 18:00:00 19.4 10 Oeste 22 Oeste 0 -- -- 64
2020-04-05 17:00:00 19.9 9 Oeste 27 Oeste 0 -- -- 64
2020-04-05 16:00:00 19.2 14 Oeste 26 Oeste 0 -- -- 60
2020-04-05 15:00:00 18.6 14 Noroeste 33 Oeste 0 -- -- 55
2020-04-05 14:00:00 17.1 17 Oeste 30 Oeste 0 -- -- 61
2020-04-05 13:00:00 16.4 14 Oeste 24 Oeste 0 -- -- 73
2020-04-05 12:00:00 15.7 10 Oeste 19 Oeste 0 -- -- 76
2020-04-05 11:00:00 15.2 7 Oeste 10 Oeste 0 -- -- 59
2020-04-05 10:00:00 14.3 3 Oeste 13 Nordeste 0 -- -- 59
2020-04-05 09:00:00 13 10 Nordeste 19 Norte 0 -- -- 62
2020-04-05 08:00:00 12.2 14 Norte 18 Norte 0 -- -- 62
2020-04-05 07:00:00 12.1 15 Norte 24 Norte 0 -- -- 69
2020-04-05 06:00:00 10.8 19 Noroeste 35 Noroeste 0 -- -- 82
2020-04-05 05:00:00 10.2 26 Noroeste 49 Noroeste 0 -- -- 100
2020-04-05 04:00:00 9.1 36 Noroeste 44 Noroeste 0 -- -- 82
2020-04-05 03:00:00 10.4 22 Noroeste 31 Noroeste 0 -- -- 57
2020-04-05 02:00:00 10.1 28 Noroeste 42 Noroeste 0 -- -- 64
2020-04-05 01:00:00 9.2 30 Noroeste 42 Noroeste 0 -- -- 100
2020-04-05 00:00:00 9.2 32 Noroeste 52 Noroeste 0 -- -- 100
2020-04-04 23:00:00 9.6 35 Oeste 47 Noroeste 0 -- -- 100
2020-04-04 22:00:00 9.2 34 Noroeste 43 Oeste 0 -- -- 100
2020-04-04 21:00:00 9.3 31 Noroeste 43 Oeste 0 -- -- 90
2020-04-04 20:00:00 10.2 30 Oeste 46 Oeste 0 -- -- 88
2020-04-04 19:00:00 11.2 37 Oeste 48 Oeste 0 -- -- 86
2020-04-04 18:00:00 12.9 27 Oeste 41 Oeste 0 -- -- 85
2020-04-04 17:00:00 14.9 16 Oeste 38 Oeste 0 -- -- 73
2020-04-04 16:00:00 14.8 26 Oeste 46 Oeste 0 -- -- 74
2020-04-04 15:00:00 12.9 23 Oeste 53 Oeste 0 -- -- 86
2020-04-04 14:00:00 11.6 31 Oeste 49 Oeste 0 -- -- 96
2020-04-04 13:00:00 11.1 32 Oeste 47 Oeste 0 -- -- 100
2020-04-04 12:00:00 10.5 33 Oeste 45 Oeste 0 -- -- 100
2020-04-04 11:00:00 9.6 26 Oeste 42 Oeste 0 -- -- 100
2020-04-04 10:00:00 8.6 28 Oeste 42 Oeste 0 -- -- 100
2020-04-04 09:00:00 7.8 26 Noroeste 36 Oeste 0 -- -- 100
2020-04-04 08:00:00 7.9 33 Oeste 45 Oeste 0 -- -- 100
2020-04-04 07:00:00 7.4 37 Oeste 43 Oeste 0 -- -- 100
2020-04-04 06:00:00 7.3 32 Oeste 40 Oeste 0 -- -- 100
2020-04-04 05:00:00 6.8 33 Oeste 47 Oeste 0 -- -- 100
2020-04-04 04:00:00 7.7 37 Oeste 49 Oeste 0 -- -- 100
2020-04-04 03:00:00 8.6 42 Oeste 61 Oeste 0 -- -- 100
2020-04-04 02:00:00 8.7 43 Oeste 67 Oeste 0 -- -- 100
2020-04-04 01:00:00 8.7 48 Oeste 60 Oeste 0 -- -- 100
2020-04-04 00:00:00 9.4 48 Oeste 65 Oeste 0 -- -- 100
2020-04-03 23:00:00 9.5 47 Oeste 64 Oeste 0 -- -- 100
2020-04-03 22:00:00 9.7 45 Oeste 71 Oeste 0 -- -- 100
2020-04-03 21:00:00 10.2 49 Oeste 77 Oeste 0.2 -- -- 100
2020-04-03 20:00:00 10.7 51 Sudoeste 69 Sudoeste 1 -- -- 100
2020-04-03 19:00:00 11.2 37 Sudoeste 57 Sudoeste 1.2 -- -- 100
2020-04-03 18:00:00 11.1 35 Sudoeste 49 Sudoeste 2.6 -- -- 100
2020-04-03 17:00:00 10.7 32 Sudoeste 60 Sudoeste 0.4 -- -- 100
2020-04-03 16:00:00 10.6 31 Sudoeste 49 Oeste 0 -- -- 100
2020-04-03 15:00:00 11 30 Oeste 60 Sudoeste 0 -- -- 100
2020-04-03 14:00:00 11.1 29 Sudoeste 49 Oeste 0 -- -- 100
2020-04-03 13:00:00 11.5 27 Oeste 48 Sudoeste 0 -- -- 93
2020-04-03 12:00:00 12.5 33 Oeste 48 Oeste 0 -- -- 73
2020-04-03 11:00:00 10.6 29 Oeste 39 Oeste 0 -- -- 70
2020-04-03 10:00:00 9.8 29 Sudoeste 36 Oeste 0 -- -- 65
2020-04-03 09:00:00 9.2 24 Sudoeste 37 Sudoeste 0 -- -- 58
2020-04-03 08:00:00 8.6 30 Sudoeste 41 Sudoeste 0 -- -- 63
2020-04-03 07:00:00 9.4 30 Sudoeste 36 Sudoeste 0 -- -- 48
2020-04-03 06:00:00 9.4 32 Sudoeste 36 Sudoeste 0 -- -- 55
2020-04-03 05:00:00 9.4 26 Sudoeste 29 Sudoeste 0 -- -- 45
2020-04-03 04:00:00 9.8 23 Sudoeste 30 Sur 0 -- -- 41
2020-04-03 03:00:00 10.3 20 Sudoeste 26 Sur 0 -- -- 41
2020-04-03 02:00:00 10.3 16 Sur 18 Sur 0 -- -- 41
2020-04-03 01:00:00 11.6 6 Sur 9 Sudeste 0 -- -- 35
2020-04-03 00:00:00 11.4 0 Calma 11 Noroeste 0 -- -- 35
2020-04-02 23:00:00 10.2 12 Noroeste 15 Noroeste 0 -- -- 41
2020-04-02 22:00:00 10.8 4 Sudoeste 14 Sudoeste 0 -- -- 39
2020-04-02 21:00:00 10.9 7 Sudoeste 10 Sudoeste 0 -- -- 40
2020-04-02 20:00:00 13.4 4 Sudoeste 10 Este 0 -- -- 43
2020-04-02 19:00:00 15.2 4 Oeste 12 Oeste 0 -- -- 72
2020-04-02 18:00:00 15.3 9 Oeste 15 Oeste 0 -- -- 76
2020-04-02 17:00:00 17.7 8 Oeste 17 Oeste 0 -- -- 72
2020-04-02 16:00:00 14.8 5 Norte 13 Nordeste 0 -- -- 80
2020-04-02 15:00:00 15.1 5 Noroeste 14 Sudeste 0 -- -- 82
2020-04-02 14:00:00 15.6 4 Norte 18 Nordeste 0 -- -- 76
2020-04-02 13:00:00 15.3 4 Este 15 Este 0 -- -- 54
2020-04-02 12:00:00 13.5 5 Noroeste 15 Nordeste 0 -- -- 81
2020-04-02 11:00:00 13.9 3 Norte 14 Este 0 -- -- 54
2020-04-02 10:00:00 14 9 Este 17 Este 0 -- -- 34
2020-04-02 09:00:00 12.5 10 Nordeste 13 Este 0 -- -- 38
2020-04-02 08:00:00 10.8 9 Nordeste 10 Nordeste 0 -- -- 37
2020-04-02 07:00:00 10.3 9 Este 14 Este 0 -- -- 32
2020-04-02 06:00:00 10.5 12 Este 17 Nordeste 0 -- -- 34
2020-04-02 05:00:00 11 14 Nordeste 16 Nordeste 0 -- -- 38
2020-04-02 04:00:00 10.8 17 Nordeste 19 Nordeste 0 -- -- 38
2020-04-02 03:00:00 10.2 17 Este 20 Este 0 -- -- 44
2020-04-02 02:00:00 9.8 15 Este 20 Este 0 -- -- 46
2020-04-02 01:00:00 9 19 Este 25 Este 0 -- -- 45
2020-04-02 00:00:00 9.6 22 Este 27 Nordeste 0 -- -- 43
2020-04-01 23:00:00 10.7 20 Nordeste 23 Nordeste 0 -- -- 38
2020-04-01 22:00:00 10.7 16 Nordeste 19 Nordeste 0 -- -- 44
2020-04-01 21:00:00 8.7 2 Norte 6 Norte 0 -- -- 91
2020-04-01 20:00:00 11.3 2 Noroeste 7 Noroeste 0 -- -- 90
2020-04-01 19:00:00 14 5 Noroeste 13 Noroeste 0 -- -- 80
2020-04-01 18:00:00 14.3 6 Oeste 11 Noroeste 0 -- -- 83
2020-04-01 17:00:00 15.9 6 Oeste 14 Oeste 0 -- -- 76
2020-04-01 16:00:00 16.6 4 Este 12 Noroeste 0 -- -- 73
2020-04-01 15:00:00 15.8 6 Oeste 15 Noroeste 0 -- -- 79
2020-04-01 14:00:00 13.5 6 Noroeste 12 Noroeste 0 -- -- 78
2020-04-01 13:00:00 14.3 4 Oeste 12 Noroeste 0 -- -- 82
2020-04-01 12:00:00 14.2 3 Noroeste 12 Nordeste 0 -- -- 78
2020-04-01 11:00:00 12.7 8 Sudoeste 13 Sudoeste 0 -- -- 42
2020-04-01 10:00:00 11.3 8 Sudoeste 13 Sudoeste 0 -- -- 42
2020-04-01 09:00:00 10.8 8 Sudoeste 10 Sudoeste 0 -- -- 37
2020-04-01 08:00:00 10.3 8 Sudoeste 13 Sudoeste 0 -- -- 41
2020-04-01 07:00:00 10.7 8 Sudoeste 10 Sudoeste 0 -- -- 35
2020-04-01 06:00:00 10.4 3 Sur 8 Sur 0 -- -- 38
2020-04-01 05:00:00 10.6 6 Sudeste 6 Sudeste 0 -- -- 40
2020-04-01 04:00:00 10.1 6 Sudoeste 9 Nordeste 0 -- -- 43
2020-04-01 03:00:00 9.6 6 Este 11 Nordeste 0 -- -- 50
2020-04-01 02:00:00 10.3 8 Este 9 Este 0 -- -- 46
2020-04-01 01:00:00 10.6 4 Nordeste 11 Norte 0 -- -- 42
2020-04-01 00:00:00 10.5 9 Noroeste 18 Noroeste 0 -- -- 41
2020-03-31 23:00:00 10.2 18 Noroeste 21 Noroeste 0 -- -- 37
2020-03-31 22:00:00 10.2 17 Noroeste 21 Noroeste 0 -- -- 36
2020-03-31 21:00:00 9.9 16 Noroeste 22 Noroeste 0 -- -- 46
2020-03-31 20:00:00 12.7 14 Oeste 25 Oeste 0 -- -- 75
2020-03-31 19:00:00 15.6 15 Oeste 23 Oeste 0 -- -- 63
2020-03-31 18:00:00 15 15 Oeste 27 Noroeste 0 -- -- 58
2020-03-31 17:00:00 15.2 13 Noroeste 23 Noroeste 0 -- -- 67
2020-03-31 16:00:00 16.2 15 Oeste 27 Oeste 0 -- -- 67
2020-03-31 15:00:00 15.7 8 Oeste 21 Oeste 0 -- -- 75
2020-03-31 14:00:00 15 10 Oeste 22 Oeste 0 -- -- 75
2020-03-31 13:00:00 14.3 17 Oeste 28 Noroeste 0 -- -- 60
2020-03-31 12:00:00 13.4 17 Oeste 30 Oeste 0 -- -- 60
2020-03-31 11:00:00 11.5 21 Noroeste 35 Noroeste 0 -- -- 50
2020-03-31 10:00:00 9.5 25 Noroeste 31 Noroeste 0 -- -- 65
2020-03-31 09:00:00 8.4 25 Noroeste 31 Noroeste 0 -- -- 94
2020-03-31 08:00:00 8 26 Noroeste 32 Noroeste 0 -- -- 88
2020-03-31 07:00:00 9 25 Oeste 41 Noroeste 0 -- -- 75
2020-03-31 06:00:00 7.2 28 Noroeste 36 Noroeste 0 -- -- 100
2020-03-31 05:00:00 8.1 22 Noroeste 33 Noroeste 0 -- -- 100
2020-03-31 04:00:00 7.9 21 Noroeste 30 Oeste 0 -- -- 100
2020-03-31 03:00:00 9.3 22 Noroeste 32 Noroeste 0 -- -- 79
2020-03-31 02:00:00 9.2 29 Noroeste 35 Noroeste 0 -- -- 89
2020-03-31 01:00:00 9.4 27 Noroeste 38 Noroeste 0 -- -- 82
2020-03-31 00:00:00 8.9 32 Noroeste 40 Noroeste 0 -- -- 95
2020-03-30 23:00:00 8 34 Noroeste 41 Noroeste 0 -- -- 85
2020-03-30 22:00:00 7.5 31 Noroeste 50 Oeste 0 -- -- 93
2020-03-30 21:00:00 8.7 34 Noroeste 43 Noroeste 0 -- -- 100
2020-03-30 20:00:00 9 29 Oeste 39 Noroeste 0 -- -- 100
2020-03-30 19:00:00 10.4 26 Oeste 35 Oeste 0 -- -- 97
2020-03-30 18:00:00 13.1 22 Oeste 36 Oeste 0 -- -- 83
2020-03-30 17:00:00 16.1 18 Oeste 32 Noroeste 0 -- -- 56
2020-03-30 16:00:00 15.1 10 Oeste 23 Oeste 0 -- -- 71
2020-03-30 15:00:00 15.2 13 Oeste 27 Oeste 0 -- -- 72
2020-03-30 14:00:00 15.5 14 Noroeste 22 Oeste 0 -- -- 67
2020-03-30 13:00:00 14.1 13 Oeste 26 Oeste 0 -- -- 60
2020-03-30 12:00:00 13.3 16 Oeste 24 Oeste 0 -- -- 58
2020-03-30 11:00:00 11.7 16 Oeste 20 Oeste 0 -- -- 67
2020-03-30 10:00:00 10.7 15 Oeste 21 Oeste 0 -- -- 63
2020-03-30 09:00:00 9.7 13 Oeste 15 Oeste 0 -- -- 72
2020-03-30 08:00:00 8.9 7 Sudoeste 12 Oeste 0 -- -- 72
2020-03-30 07:00:00 9.6 6 Oeste 10 Oeste 0 -- -- 66
2020-03-30 06:00:00 9.7 4 Oeste 5 Oeste 0 -- -- 64
2020-03-30 05:00:00 10 3 Oeste 4 Oeste 0 -- -- 61
2020-03-30 04:00:00 10.3 2 Oeste 7 Oeste 0 -- -- 59
2020-03-30 03:00:00 10.2 4 Noroeste 8 Nordeste 0 -- -- 59
2020-03-30 02:00:00 9.7 4 Nordeste 9 Nordeste 0 -- -- 66
2020-03-30 01:00:00 10 3 Nordeste 8 Este 0 -- -- 61
2020-03-30 00:00:00 10.4 5 Este 8 Este 0 -- -- 52
2020-03-29 23:00:00 10.6 6 Norte 17 Norte 0 -- -- 53
2020-03-29 22:00:00 10.6 16 Noroeste 18 Noroeste 0 -- -- 51
2020-03-29 21:00:00 9.8 14 Noroeste 17 Noroeste 0 -- -- 47
2020-03-29 20:00:00 11.9 11 Noroeste 15 Noroeste 0 -- -- 45
2020-03-29 19:00:00 12.6 9 Oeste 18 Noroeste 0 -- -- 79
2020-03-29 18:00:00 13.9 12 Noroeste 23 Noroeste 0 -- -- 81
2020-03-29 17:00:00 14.2 11 Noroeste 20 Oeste 0 -- -- 81
2020-03-29 16:00:00 14.2 8 Oeste 29 Este 0 -- -- 79
2020-03-29 15:00:00 12.7 3 Noroeste 21 Nordeste 0 -- -- 86
2020-03-29 14:00:00 11.7 5 Norte 13 Noroeste 0 -- -- 90
2020-03-29 13:00:00 13.2 4 Oeste 18 Norte 0 -- -- 84
2020-03-29 12:00:00 12.5 8 Norte 15 Nordeste 0 -- -- 73
2020-03-29 11:00:00 11.1 6 Nordeste 16 Nordeste 0 -- -- 61
2020-03-29 10:00:00 9.3 10 Norte 21 Norte 0 -- -- 52
2020-03-29 09:00:00 8.2 17 Norte 18 Norte 0 -- -- 49
2020-03-29 08:00:00 7.1 6 Noroeste 13 Norte 0 -- -- 66
2020-03-29 07:00:00 6.4 5 Norte 9 Noroeste 0 -- -- 69
2020-03-29 06:00:00 6.2 7 Noroeste 15 Oeste 0 -- -- 71
2020-03-29 05:00:00 5.9 13 Oeste 20 Oeste 0 -- -- 70
2020-03-29 04:00:00 5.4 18 Oeste 22 Oeste 0 -- -- 87
2020-03-29 00:00:00 5.9 9 Noroeste 10 Noroeste 0 -- -- 98
2020-03-28 23:00:00 6.1 8 Noroeste 13 Oeste 0 -- -- 84
2020-03-28 22:00:00 6.3 9 Oeste 12 Oeste 0 -- -- 79
2020-03-28 21:00:00 6.3 7 Oeste 11 Oeste 0 -- -- 86
2020-03-28 20:00:00 6.8 6 Oeste 17 Oeste 0 -- -- 100
2020-03-28 19:00:00 7.9 6 Sudoeste 15 Oeste 0 -- -- 95
2020-03-28 18:00:00 11.9 10 Oeste 21 Oeste 0 -- -- 80
2020-03-28 17:00:00 12.8 14 Oeste 24 Oeste 0 -- -- 80
2020-03-28 16:00:00 12.4 17 Oeste 23 Sudoeste 0 -- -- 87
2020-03-28 15:00:00 10.3 7 Oeste 16 Sudoeste 0 -- -- 100
2020-03-28 14:00:00 9.2 5 Sudeste 15 Sur 0 -- -- 100
2020-03-28 13:00:00 9.4 5 Sudoeste 15 Este 0 -- -- 100
2020-03-28 12:00:00 8.5 11 Este 23 Este 0 -- -- 100
2020-03-28 11:00:00 7.6 16 Este 28 Este 0 -- -- 100
2020-03-28 10:00:00 6.8 20 Este 34 Nordeste 0.2 -- -- 100
2020-03-28 09:00:00 5.9 25 Nordeste 34 Nordeste 0 -- -- 100
2020-03-28 08:00:00 4.5 24 Nordeste 32 Nordeste 0 -- -- 100
2020-03-28 07:00:00 4 17 Nordeste 23 Norte 0.2 -- -- 100
2020-03-28 06:00:00 4.1 19 Norte 25 Norte 0 -- -- 100
2020-03-28 05:00:00 4.1 18 Norte 40 Norte 0 -- -- 100
2020-03-28 04:00:00 4.3 25 Norte 37 Norte 0 -- -- 100
2020-03-28 03:00:00 4.2 22 Norte 35 Norte 0 -- -- 100
2020-03-28 02:00:00 4.4 17 Nordeste 36 Norte 0 -- -- 100
2020-03-28 01:00:00 4.6 24 Norte 47 Norte 0 -- -- 100
2020-03-28 00:00:00 4.7 33 Norte 51 Norte 0.2 -- -- 100
2020-03-27 23:00:00 4.8 30 Norte 45 Norte 0 -- -- 100
2020-03-27 22:00:00 5 28 Norte 44 Norte 0.4 -- -- 100
2020-03-27 21:00:00 5.8 33 Norte 45 Norte 0.4 -- -- 100
2020-03-27 20:00:00 6.2 28 Norte 44 Norte 0.6 -- -- 100
2020-03-27 19:00:00 6.4 22 Norte 37 Noroeste 0.2 -- -- 100
2020-03-27 18:00:00 6.6 17 Noroeste 40 Oeste 0.2 -- -- 100
2020-03-27 17:00:00 7.7 26 Oeste 37 Oeste 0 -- -- 96
2020-03-27 16:00:00 11.3 26 Oeste 43 Oeste 0 -- -- 76
2020-03-27 15:00:00 10.8 25 Oeste 39 Oeste 0 -- -- 82
2020-03-27 14:00:00 11.4 23 Oeste 33 Oeste 0 -- -- 77
2020-03-27 13:00:00 9.2 14 Noroeste 23 Noroeste 0 -- -- 85
2020-03-27 12:00:00 8.6 13 Norte 26 Norte 0 -- -- 87
2020-03-27 11:00:00 7.1 17 Norte 33 Norte 0 -- -- 100
2020-03-27 10:00:00 6.3 20 Norte 33 Norte 0 -- -- 100
2020-03-27 09:00:00 5.6 30 Norte 41 Norte 0 -- -- 100
2020-03-27 08:00:00 5.5 31 Norte 39 Norte 0 -- -- 100
2020-03-27 07:00:00 5.2 24 Norte 32 Norte 0 -- -- 100
2020-03-27 06:00:00 5.4 25 Norte 32 Norte 0 -- -- 100
2020-03-27 05:00:00 5.1 24 Norte 32 Norte 0 -- -- 100
2020-03-27 04:00:00 5.3 18 Norte 23 Norte 0 -- -- 100
2020-03-27 03:00:00 5 19 Norte 32 Nordeste 0 -- -- 99
2020-03-27 02:00:00 4.6 21 Norte 35 Nordeste 0 -- -- 100
2020-03-27 01:00:00 4.5 27 Nordeste 47 Nordeste 0 -- -- 100
2020-03-27 00:00:00 4.7 27 Nordeste 46 Nordeste 0 -- -- 100
2020-03-26 23:00:00 5.1 31 Nordeste 49 Norte 0 -- -- 100
2020-03-26 22:00:00 5.2 24 Nordeste 38 Norte 0 -- -- 100
2020-03-26 21:00:00 5.3 23 Norte 38 Nordeste 0 -- -- 100
2020-03-26 20:00:00 5.2 18 Norte 28 Nordeste 0 -- -- 100
2020-03-26 19:00:00 6.2 14 Norte 27 Norte 0 -- -- 96
2020-03-26 18:00:00 7.8 16 Norte 26 Norte 0 -- -- 90
2020-03-26 17:00:00 9.1 14 Norte 27 Noroeste 0 -- -- 80
2020-03-26 16:00:00 8.2 11 Norte 24 Nordeste 0 -- -- 86
2020-03-26 15:00:00 9 13 Nordeste 24 Norte 0 -- -- 88
2020-03-26 14:00:00 9 17 Noroeste 32 Noroeste 0 -- -- 79
2020-03-26 13:00:00 7.3 11 Norte 18 Este 0 -- -- 93
2020-03-26 12:00:00 7.9 9 Nordeste 21 Este 0 -- -- 92
2020-03-26 11:00:00 8.5 9 Este 20 Nordeste 0 -- -- 89
2020-03-26 10:00:00 7.3 12 Nordeste 29 Norte 0 -- -- 86
2020-03-26 09:00:00 6.8 16 Nordeste 25 Nordeste 0 -- -- 89
2020-03-26 08:00:00 5.4 16 Norte 25 Norte 0 -- -- 98
2020-03-26 07:00:00 5.1 20 Norte 24 Norte 0 -- -- 90
2020-03-26 06:00:00 5.1 16 Nordeste 24 Norte 0 -- -- 98
2020-03-26 05:00:00 5.3 18 Nordeste 24 Norte 0 -- -- 92
2020-03-26 04:00:00 5.1 20 Nordeste 25 Nordeste 0 -- -- 95
2020-03-26 03:00:00 5.3 18 Nordeste 22 Nordeste 0 -- -- 96
2020-03-26 02:00:00 5.2 17 Nordeste 23 Este 0 -- -- 96
2020-03-26 01:00:00 5.4 18 Nordeste 22 Nordeste 0 -- -- 92
2020-03-26 00:00:00 5.3 17 Nordeste 24 Nordeste 0 -- -- 95
2020-03-25 23:00:00 5.4 17 Nordeste 28 Nordeste 0 -- -- 100
2020-03-25 22:00:00 4.8 21 Nordeste 26 Nordeste 0 -- -- 100
2020-03-25 21:00:00 5.2 19 Nordeste 26 Nordeste 0 -- -- 100
2020-03-25 20:00:00 5.1 16 Nordeste 21 Nordeste 0.2 -- -- 100
2020-03-25 19:00:00 5.6 13 Nordeste 19 Nordeste 0.2 -- -- 100
2020-03-25 18:00:00 6.3 7 Este 19 Este 0 -- -- 100
2020-03-25 17:00:00 6.9 4 Este 8 Este 0.2 -- -- 100
2020-03-25 16:00:00 6.9 4 Este 12 Este 0.2 -- -- 100
2020-03-25 15:00:00 6.9 8 Este 18 Este 0 -- -- 100
2020-03-25 14:00:00 7.1 12 Este 21 Este 0 -- -- 100
2020-03-25 13:00:00 6.6 15 Este 24 Este 0.2 -- -- 100
2020-03-25 12:00:00 6 20 Este 25 Este 0 -- -- 100
2020-03-25 11:00:00 7.2 6 Este 14 Este 0 -- -- 100
2020-03-25 10:00:00 6.9 6 Este 16 Este 0 -- -- 100
2020-03-25 09:00:00 5.4 13 Este 23 Nordeste 0 -- -- 100
2020-03-25 08:00:00 5.1 12 Nordeste 24 Este 0 -- -- 100
2020-03-25 07:00:00 5.2 14 Este 28 Este 0.2 -- -- 100
2020-03-25 06:00:00 4.6 10 Nordeste 31 Nordeste 0 -- -- 100
2020-03-25 05:00:00 4.3 23 Nordeste 37 Nordeste 0 -- -- 100
2020-03-25 04:00:00 4.9 27 Nordeste 39 Nordeste 0 -- -- 100
2020-03-25 03:00:00 4.9 23 Nordeste 42 Nordeste 0 -- -- 100
2020-03-25 02:00:00 5.1 23 Nordeste 44 Nordeste 0.2 -- -- 100
2020-03-25 01:00:00 5.4 18 Nordeste 39 Este 0 -- -- 100
2020-03-25 00:00:00 5.2 26 Nordeste 40 Nordeste 0 -- -- 100
2020-03-24 23:00:00 5.2 27 Nordeste 42 Este 0 -- -- 100
2020-03-24 22:00:00 4.9 27 Nordeste 51 Nordeste 0 -- -- 100
2020-03-24 21:00:00 4.5 33 Nordeste 51 Nordeste 0 -- -- 100
2020-03-24 20:00:00 4.7 35 Nordeste 59 Nordeste 0 -- -- 100
2020-03-24 19:00:00 4.9 39 Nordeste 59 Nordeste 0 -- -- 100
2020-03-24 18:00:00 5.7 33 Norte 54 Norte 0 -- -- 100
2020-03-24 17:00:00 6.8 26 Norte 45 Norte 0 -- -- 100
2020-03-24 16:00:00 6.7 24 Norte 40 Norte 0 -- -- 100
2020-03-24 15:00:00 7.6 21 Noroeste 32 Noroeste 0 -- -- 100
2020-03-24 14:00:00 7.6 17 Norte 30 Norte 0 -- -- 100
2020-03-24 13:00:00 7.4 21 Norte 42 Norte 0 -- -- 100
2020-03-24 12:00:00 7.5 18 Nordeste 46 Nordeste 0 -- -- 100
2020-03-24 11:00:00 6.8 13 Nordeste 52 Nordeste 0 -- -- 100
2020-03-24 10:00:00 6.2 28 Nordeste 50 Nordeste 0 -- -- 100
2020-03-24 09:00:00 5.9 21 Nordeste 58 Nordeste 0 -- -- 100
2020-03-24 08:00:00 5.5 34 Nordeste 60 Nordeste 0 -- -- 100
2020-03-24 07:00:00 5.3 39 Nordeste 63 Nordeste 0 -- -- 100
2020-03-24 06:00:00 5.4 43 Nordeste 65 Norte 0 -- -- 100
2020-03-24 05:00:00 5.7 31 Norte 58 Nordeste 0.4 -- -- 100
2020-03-24 04:00:00 5.2 40 Nordeste 61 Nordeste 0 -- -- 100
2020-03-24 03:00:00 5.7 36 Nordeste 67 Nordeste 0 -- -- 100
2020-03-24 02:00:00 5.4 44 Nordeste 74 Nordeste 0.8 -- -- 100
2020-03-24 01:00:00 5.9 43 Nordeste 75 Este 0.2 -- -- 100
2020-03-24 00:00:00 6 35 Norte 68 Nordeste 1.8 -- -- 100
2020-03-23 23:00:00 5.6 42 Nordeste 80 Nordeste 0 -- -- 100
2020-03-23 22:00:00 4.8 41 Nordeste 70 Nordeste 0 -- -- 100
2020-03-23 21:00:00 5.5 44 Nordeste 72 Nordeste 0 -- -- 100
2020-03-23 20:00:00 5.5 44 Nordeste 71 Norte 0 -- -- 100
2020-03-23 19:00:00 5.6 46 Nordeste 75 Nordeste 0 -- -- 100
2020-03-23 18:00:00 5.5 49 Nordeste 73 Nordeste 0 -- -- 100
2020-03-23 17:00:00 5.7 46 Nordeste 89 Nordeste 0.2 -- -- 100
2020-03-23 16:00:00 5.6 46 Nordeste 93 Nordeste 0 -- -- 100
2020-03-23 15:00:00 5.6 48 Nordeste 93 Nordeste 1.4 -- -- 100
2020-03-23 14:00:00 5.6 53 Norte 86 Norte 1.2 -- -- 100
2020-03-23 13:00:00 5.5 50 Norte 97 Nordeste 2.2 -- -- 100
2020-03-23 12:00:00 5.2 48 Norte 89 Norte 0.6 -- -- 100
2020-03-23 11:00:00 5 45 Norte 90 Nordeste 0.8 -- -- 100
2020-03-23 10:00:00 4.9 55 Norte 94 Norte 0.2 -- -- 100
2020-03-23 09:00:00 4.8 66 Norte 101 Norte 0.6 -- -- 100
2020-03-23 08:00:00 4.4 68 Norte 99 Norte 0.2 -- -- 100
2020-03-23 07:00:00 4.4 51 Norte 94 Noroeste 0.2 -- -- 100
2020-03-23 06:00:00 4.2 53 Norte 93 Norte 1 -- -- 100
2020-03-23 05:00:00 4.2 62 Norte 94 Norte 0 -- -- 100
2020-03-23 04:00:00 4 61 Norte 101 Norte 1.2 -- -- 100
2020-03-23 03:00:00 4.8 57 Noroeste 103 Noroeste 0.2 -- -- 100
2020-03-23 02:00:00 4.1 71 Noroeste 99 Noroeste 0 -- -- 100
2020-03-23 01:00:00 4 57 Noroeste 89 Noroeste 0 -- -- 100
2020-03-23 00:00:00 5 59 Noroeste 98 Noroeste 0 -- -- 100
2020-03-22 23:00:00 4.8 57 Noroeste 86 Norte 0 -- -- 100
2020-03-22 22:00:00 4.7 60 Norte 85 Norte 0 -- -- 100
2020-03-22 21:00:00 4.7 46 Noroeste 75 Noroeste 0 -- -- 100
2020-03-22 20:00:00 5.1 47 Noroeste 79 Noroeste 0 -- -- 100
2020-03-22 19:00:00 4.8 41 Norte 60 Noroeste 0.4 -- -- 100
2020-03-22 18:00:00 6 39 Noroeste 68 Noroeste 0.8 -- -- 100
2020-03-22 17:00:00 6 40 Norte 54 Norte 0.4 -- -- 100
2020-03-22 16:00:00 7.3 40 Noroeste 72 Oeste 0.8 -- -- 100
2020-03-22 15:00:00 6.9 39 Oeste 54 Oeste 0 -- -- 100
2020-03-22 14:00:00 8.1 25 Noroeste 46 Oeste 0 -- -- 100
2020-03-22 13:00:00 6.9 27 Noroeste 45 Noroeste 0 -- -- 100
2020-03-22 12:00:00 5.9 29 Noroeste 54 Norte 0 -- -- 100
2020-03-22 11:00:00 5 36 Norte 55 Norte 0 -- -- 100
2020-03-22 10:00:00 4.9 36 Norte 57 Norte 0 -- -- 100
2020-03-22 09:00:00 4.7 40 Norte 69 Norte 0 -- -- 100
2020-03-22 08:00:00 4.3 46 Norte 61 Norte 0.2 -- -- 100
2020-03-22 07:00:00 4.3 40 Norte 59 Norte 0 -- -- 100
2020-03-22 06:00:00 3.8 45 Norte 58 Norte 0 -- -- 100
2020-03-22 05:00:00 3.9 36 Norte 54 Norte 0 -- -- 100
2020-03-22 04:00:00 4.1 35 Norte 51 Norte 0 -- -- 100
2020-03-22 03:00:00 3.8 37 Norte 53 Norte 0 -- -- 100
2020-03-22 02:00:00 3.9 37 Norte 58 Norte 0 -- -- 100
2020-03-22 01:00:00 3.6 38 Norte 60 Norte 0 -- -- 100
2020-03-22 00:00:00 3.5 40 Norte 56 Norte 0.2 -- -- 100
2020-03-21 23:00:00 3.7 37 Norte 56 Norte 0 -- -- 100
2020-03-21 22:00:00 4.2 30 Norte 53 Nordeste 0 -- -- 100
2020-03-21 21:00:00 4.5 37 Nordeste 57 Nordeste 0 -- -- 100
2020-03-21 20:00:00 4.6 35 Nordeste 55 Nordeste 0 -- -- 100
2020-03-21 19:00:00 4.7 28 Nordeste 45 Nordeste 0 -- -- 100
2020-03-21 18:00:00 4.8 31 Nordeste 46 Nordeste 0 -- -- 100
2020-03-21 17:00:00 6.1 15 Nordeste 37 Nordeste 0 -- -- 100
2020-03-21 16:00:00 6.9 14 Nordeste 32 Nordeste 0 -- -- 100
2020-03-21 15:00:00 6.8 10 Norte 30 Nordeste 0 -- -- 100
2020-03-21 14:00:00 6.4 12 Nordeste 37 Nordeste 0 -- -- 100
2020-03-21 13:00:00 5.8 24 Nordeste 42 Este 0 -- -- 100
2020-03-21 12:00:00 5.3 23 Nordeste 37 Nordeste 0 -- -- 100
2020-03-21 11:00:00 5.1 23 Este 42 Nordeste 0 -- -- 100
2020-03-21 10:00:00 4.5 35 Nordeste 49 Nordeste 0 -- -- 100
2020-03-21 09:00:00 4.3 33 Nordeste 47 Este 0 -- -- 100
2020-03-21 08:00:00 4.1 33 Nordeste 47 Nordeste 0 -- -- 100
2020-03-21 07:00:00 4.1 25 Nordeste 51 Nordeste 0 -- -- 100
2020-03-21 06:00:00 4.5 34 Nordeste 47 Nordeste 0 -- -- 100
2020-03-21 05:00:00 4.8 27 Nordeste 46 Nordeste 0 -- -- 100
2020-03-21 04:00:00 4.9 29 Nordeste 52 Nordeste 0 -- -- 100
2020-03-21 03:00:00 5.3 36 Nordeste 51 Nordeste 0.2 -- -- 100
2020-03-21 02:00:00 5.4 40 Nordeste 56 Nordeste 0 -- -- 100
2020-03-21 01:00:00 6.2 39 Nordeste 53 Nordeste 0.2 -- -- 100
2020-03-21 00:00:00 6.7 39 Nordeste 52 Nordeste 0.2 -- -- 100
2020-03-20 23:00:00 6.6 37 Nordeste 49 Nordeste 0.2 -- -- 100
2020-03-20 22:00:00 6.8 35 Nordeste 48 Nordeste 0.2 -- -- 100
2020-03-20 21:00:00 6.9 35 Nordeste 45 Nordeste 0.2 -- -- 100
2020-03-20 20:00:00 7.1 26 Nordeste 44 Este 0.2 -- -- 100
2020-03-20 19:00:00 6.9 20 Nordeste 41 Nordeste 0.2 -- -- 100
2020-03-20 18:00:00 6.9 12 Nordeste 49 Nordeste 0 -- -- 100
2020-03-20 17:00:00 7 39 Nordeste 51 Nordeste 0 -- -- 100
2020-03-20 16:00:00 7 26 Nordeste 45 Nordeste 0 -- -- 100
2020-03-20 15:00:00 7 28 Nordeste 49 Nordeste 0 -- -- 100
2020-03-20 14:00:00 7.1 32 Nordeste 49 Este 0 -- -- 100
2020-03-20 13:00:00 6.4 32 Nordeste 51 Nordeste 0 -- -- 100
2020-03-20 12:00:00 6.1 37 Nordeste 55 Nordeste 0 -- -- 100
2020-03-20 11:00:00 6.5 29 Nordeste 51 Nordeste 0 -- -- 100
2020-03-20 10:00:00 6.6 34 Nordeste 55 Nordeste 0 -- -- 100
2020-03-20 09:00:00 6.2 41 Nordeste 53 Nordeste 0 -- -- 100
2020-03-20 08:00:00 5.7 43 Nordeste 52 Nordeste 0.2 -- -- 100
2020-03-20 07:00:00 5.7 28 Nordeste 49 Nordeste 0 -- -- 100
2020-03-20 06:00:00 6.6 28 Nordeste 53 Nordeste 0 -- -- 100
2020-03-20 05:00:00 6.5 32 Nordeste 54 Nordeste 0 -- -- 100
2020-03-20 04:00:00 6.3 32 Nordeste 57 Nordeste 0 -- -- 100
2020-03-20 03:00:00 6.4 40 Nordeste 58 Nordeste 0 -- -- 100
2020-03-20 02:00:00 6.9 38 Nordeste 63 Nordeste 0.2 -- -- 100
2020-03-20 01:00:00 6.9 36 Nordeste 58 Nordeste 0 -- -- 100
2020-03-20 00:00:00 6.8 38 Nordeste 71 Nordeste 0 -- -- 100
2020-03-19 23:00:00 7.1 40 Nordeste 76 Nordeste 0.2 -- -- 100
2020-03-19 22:00:00 7.1 51 Nordeste 79 Nordeste 0 -- -- 100
2020-03-19 21:00:00 6.8 51 Nordeste 78 Nordeste 0 -- -- 100
2020-03-19 20:00:00 6.8 45 Nordeste 72 Nordeste 0 -- -- 100
2020-03-19 19:00:00 6.9 50 Nordeste 78 Nordeste 0 -- -- 100
2020-03-19 18:00:00 7.4 48 Nordeste 88 Nordeste 0 -- -- 100
2020-03-19 17:00:00 7.6 47 Nordeste 73 Nordeste 0 -- -- 100
2020-03-19 16:00:00 7.8 45 Nordeste 71 Nordeste 0.2 -- -- 100
2020-03-19 15:00:00 8.2 45 Nordeste 84 Nordeste 0.4 -- -- 100
2020-03-19 14:00:00 8 44 Nordeste 77 Nordeste 0 -- -- 100
2020-03-19 13:00:00 7.8 55 Nordeste 77 Nordeste 0 -- -- 100
2020-03-19 12:00:00 7.6 46 Nordeste 87 Nordeste 0 -- -- 100
2020-03-19 11:00:00 7.1 55 Nordeste 87 Nordeste 0 -- -- 100
2020-03-19 10:00:00 7.1 51 Nordeste 83 Nordeste 0.4 -- -- 100
2020-03-19 09:00:00 7.3 41 Nordeste 83 Nordeste 0.2 -- -- 100
2020-03-19 08:00:00 6.5 52 Nordeste 85 Norte 0 -- -- 100
2020-03-19 07:00:00 6 53 Nordeste 82 Nordeste 0.2 -- -- 100
2020-03-19 06:00:00 6.4 51 Nordeste 87 Nordeste 0.2 -- -- 100
2020-03-19 05:00:00 6.5 54 Nordeste 84 Nordeste 0 -- -- 100
2020-03-19 04:00:00 6.2 54 Nordeste 83 Nordeste 0.4 -- -- 100
2020-03-19 03:00:00 5.9 51 Nordeste 96 Nordeste 0 -- -- 100
2020-03-19 02:00:00 5.3 55 Nordeste 85 Nordeste 0 -- -- 100
2020-03-19 01:00:00 4.7 48 Nordeste 75 Nordeste 0 -- -- 100
2020-03-19 00:00:00 4.8 50 Nordeste 85 Nordeste 0 -- -- 100
2020-03-18 23:00:00 4.9 45 Nordeste 75 Nordeste 0 -- -- 100
2020-03-18 22:00:00 4.7 44 Nordeste 82 Nordeste 0 -- -- 100
2020-03-18 21:00:00 5.1 43 Nordeste 77 Nordeste 0 -- -- 100
2020-03-18 20:00:00 5 46 Nordeste 80 Nordeste 0 -- -- 100
2020-03-18 19:00:00 4.8 51 Nordeste 83 Nordeste 0 -- -- 100
2020-03-18 18:00:00 5.1 52 Nordeste 80 Nordeste 0 -- -- 100
2020-03-18 17:00:00 4.9 50 Nordeste 78 Nordeste 0 -- -- 100
2020-03-18 16:00:00 5.5 39 Nordeste 68 Nordeste 0 -- -- 100
2020-03-18 15:00:00 5.6 32 Nordeste 57 Nordeste 0 -- -- 100
2020-03-18 14:00:00 5.4 32 Nordeste 58 Nordeste 0 -- -- 100
2020-03-18 13:00:00 5.5 34 Nordeste 60 Nordeste 0 -- -- 100
2020-03-18 12:00:00 5.7 36 Nordeste 69 Este 0 -- -- 100
2020-03-18 11:00:00 4.9 49 Nordeste 73 Nordeste 0.2 -- -- 100
2020-03-18 10:00:00 4.8 45 Nordeste 69 Nordeste 0.6 -- -- 100
2020-03-18 09:00:00 5.2 48 Nordeste 74 Nordeste 0.2 -- -- 100
2020-03-18 08:00:00 4.6 39 Nordeste 64 Nordeste 0.2 -- -- 100
2020-03-18 07:00:00 4.7 30 Nordeste 62 Nordeste 0 -- -- 100
2020-03-18 06:00:00 4.2 40 Nordeste 77 Nordeste 0 -- -- 100
2020-03-18 05:00:00 4.7 49 Nordeste 76 Nordeste 0.4 -- -- 100
2020-03-18 04:00:00 4.9 45 Nordeste 72 Nordeste 0.4 -- -- 100
2020-03-18 03:00:00 4.8 49 Nordeste 75 Nordeste 0.2 -- -- 100
2020-03-18 02:00:00 5 47 Nordeste 65 Nordeste 0.8 -- -- 100
2020-03-18 01:00:00 5.1 50 Nordeste 73 Nordeste 0.2 -- -- 100
2020-03-18 00:00:00 5.2 44 Nordeste 73 Nordeste 0.8 -- -- 100
2020-03-17 23:00:00 4.6 55 Nordeste 75 Nordeste 0.2 -- -- 100
2020-03-17 22:00:00 4.8 51 Nordeste 78 Nordeste 0.2 -- -- 100
2020-03-17 21:00:00 5.7 52 Nordeste 73 Nordeste 0.4 -- -- 100
2020-03-17 20:00:00 5.3 40 Nordeste 62 Nordeste 0.8 -- -- 100
2020-03-17 19:00:00 5.8 46 Nordeste 63 Nordeste 0.4 -- -- 100
2020-03-17 18:00:00 5.7 39 Nordeste 66 Nordeste 0.2 -- -- 100
2020-03-17 17:00:00 6.2 41 Nordeste 59 Nordeste 0.4 -- -- 100
2020-03-17 16:00:00 6.9 27 Nordeste 57 Nordeste 0.4 -- -- 100
2020-03-17 15:00:00 5.8 43 Nordeste 64 Nordeste 0 -- -- 100
2020-03-17 14:00:00 5.9 48 Nordeste 69 Nordeste 0 -- -- 100
2020-03-17 13:00:00 5.8 46 Nordeste 66 Nordeste 0 -- -- 100
2020-03-17 12:00:00 5.3 53 Nordeste 83 Nordeste 0 -- -- 100
2020-03-17 11:00:00 5 57 Nordeste 78 Nordeste 0.2 -- -- 100
2020-03-17 10:00:00 4.6 52 Nordeste 76 Nordeste 0.2 -- -- 100
2020-03-17 09:00:00 4.6 55 Nordeste 76 Nordeste 0.6 -- -- 100
2020-03-17 08:00:00 4.1 56 Nordeste 79 Nordeste 0.4 -- -- 100
2020-03-17 07:00:00 4.4 61 Nordeste 77 Nordeste 0.4 -- -- 100
2020-03-17 06:00:00 4.2 57 Nordeste 74 Nordeste 0 -- -- 100
2020-03-17 05:00:00 4.4 57 Nordeste 77 Nordeste 0.2 -- -- 100
2020-03-17 04:00:00 4.4 51 Nordeste 75 Nordeste 0.2 -- -- 100
2020-03-17 03:00:00 4.9 54 Nordeste 73 Nordeste 0.4 -- -- 100
2020-03-17 02:00:00 5.5 49 Nordeste 72 Nordeste 0 -- -- 100
2020-03-17 01:00:00 4.7 45 Nordeste 67 Nordeste 0 -- -- 100
2020-03-17 00:00:00 5 49 Nordeste 78 Nordeste 0 -- -- 100
2020-03-16 23:00:00 5.5 51 Nordeste 73 Nordeste 0.2 -- -- 100
2020-03-16 22:00:00 5.5 54 Nordeste 73 Nordeste 0 -- -- 100
2020-03-16 21:00:00 6.1 50 Nordeste 70 Nordeste 0.2 -- -- 100
2020-03-16 20:00:00 6.4 48 Nordeste 72 Nordeste 0.4 -- -- 100
2020-03-16 19:00:00 6.5 51 Nordeste 75 Nordeste 0.2 -- -- 100
2020-03-16 18:00:00 6.4 51 Nordeste 77 Nordeste 0.2 -- -- 100
2020-03-16 17:00:00 6.9 52 Nordeste 75 Nordeste 0 -- -- 100
2020-03-16 16:00:00 6.7 55 Nordeste 75 Nordeste 0 -- -- 100
2020-03-16 15:00:00 6.6 47 Nordeste 67 Nordeste 0 -- -- 100
2020-03-16 14:00:00 6.9 43 Nordeste 70 Nordeste 0 -- -- 100
2020-03-16 13:00:00 6.3 51 Nordeste 82 Nordeste 0 -- -- 100
2020-03-16 12:00:00 5.8 59 Nordeste 84 Nordeste 0 -- -- 100
2020-03-16 11:00:00 6.2 62 Nordeste 84 Nordeste 0 -- -- 100
2020-03-16 10:00:00 5.4 62 Nordeste 92 Nordeste 0 -- -- 100
2020-03-16 09:00:00 5.1 69 Nordeste 91 Nordeste 0 -- -- 100
2020-03-16 08:00:00 5.6 64 Nordeste 86 Nordeste 0.2 -- -- 100
2020-03-16 07:00:00 5.4 59 Nordeste 83 Nordeste 0 -- -- 100
2020-03-16 06:00:00 5.5 59 Nordeste 83 Nordeste 0.6 -- -- 100
2020-03-16 05:00:00 6.6 51 Nordeste 71 Nordeste 0.8 -- -- 100
2020-03-16 04:00:00 6.2 53 Nordeste 73 Este 0.2 -- -- 100
2020-03-16 03:00:00 6.3 45 Nordeste 69 Nordeste 0.6 -- -- 100
2020-03-16 02:00:00 6 49 Nordeste 66 Nordeste 0.8 -- -- 100
2020-03-16 01:00:00 6.3 41 Nordeste 73 Nordeste 0.2 -- -- 100
2020-03-16 00:00:00 5.6 47 Nordeste 72 Nordeste 0.6 -- -- 100
2020-03-15 23:00:00 5.9 45 Nordeste 75 Nordeste 0.6 -- -- 100
2020-03-15 22:00:00 6.1 44 Nordeste 76 Nordeste 0.2 -- -- 100
2020-03-15 21:00:00 5.2 52 Nordeste 74 Nordeste 0.2 -- -- 100
2020-03-15 20:00:00 5.8 48 Nordeste 72 Nordeste 0.4 -- -- 100
2020-03-15 19:00:00 5.5 44 Nordeste 69 Nordeste 0 -- -- 100
2020-03-15 18:00:00 6.3 49 Nordeste 73 Nordeste 0 -- -- 100
2020-03-15 17:00:00 5.9 44 Nordeste 70 Nordeste 0 -- -- 100
2020-03-15 16:00:00 6.3 34 Nordeste 61 Este 0 -- -- 100
2020-03-15 15:00:00 6.1 41 Nordeste 70 Nordeste 0 -- -- 100
2020-03-15 14:00:00 6 37 Nordeste 57 Nordeste 0 -- -- 100
2020-03-15 13:00:00 6.2 32 Nordeste 54 Nordeste 0 -- -- 100
2020-03-15 12:00:00 6 30 Nordeste 51 Este 0.8 -- -- 100
2020-03-15 11:00:00 5.6 37 Nordeste 57 Nordeste 0 -- -- 100
2020-03-15 10:00:00 5.1 33 Nordeste 53 Nordeste 0 -- -- 100
2020-03-15 09:00:00 5.2 34 Nordeste 53 Nordeste 0.6 -- -- 100
2020-03-15 08:00:00 5.6 29 Nordeste 50 Nordeste 0.2 -- -- 100
2020-03-15 07:00:00 4.9 30 Nordeste 51 Nordeste 0 -- -- 100
2020-03-15 06:00:00 4.5 32 Nordeste 54 Nordeste 0.2 -- -- 100
2020-03-15 05:00:00 4.8 29 Nordeste 62 Nordeste 0 -- -- 100
2020-03-15 04:00:00 4.8 36 Nordeste 59 Nordeste 0 -- -- 100
2020-03-15 03:00:00 4.5 41 Nordeste 63 Nordeste 0 -- -- 100
2020-03-15 02:00:00 5.1 38 Nordeste 59 Nordeste 0 -- -- 100
2020-03-15 01:00:00 4.8 35 Nordeste 56 Nordeste 0 -- -- 100
2020-03-15 00:00:00 4.6 36 Nordeste 57 Nordeste 0 -- -- 100
2020-03-14 23:00:00 5.2 32 Nordeste 58 Nordeste 0 -- -- 100
2020-03-14 22:00:00 5 32 Nordeste 55 Nordeste 0 -- -- 100
2020-03-14 21:00:00 4.5 39 Nordeste 54 Nordeste 0 -- -- 100
2020-03-14 20:00:00 4.9 33 Norte 46 Nordeste 0 -- -- 100
2020-03-14 19:00:00 6 28 Norte 43 Norte 0 -- -- 100
2020-03-14 18:00:00 6.8 30 Norte 48 Norte 0 -- -- 100
2020-03-14 17:00:00 8.5 13 Norte 26 Norte 0 -- -- 90
2020-03-14 16:00:00 11.1 15 Norte 25 Norte 0 -- -- 80
2020-03-14 15:00:00 11.5 8 Norte 22 Este 0 -- -- 78
2020-03-14 14:00:00 10.6 11 Nordeste 26 Nordeste 0 -- -- 82
2020-03-14 13:00:00 9.9 15 Este 27 Nordeste 0 -- -- 86
2020-03-14 12:00:00 8.4 18 Nordeste 33 Norte 0 -- -- 95
2020-03-14 11:00:00 7.5 20 Norte 39 Norte 0 -- -- 100
2020-03-14 10:00:00 7.1 27 Norte 36 Norte 0 -- -- 100
2020-03-14 09:00:00 6.3 28 Nordeste 40 Nordeste 0 -- -- 100
2020-03-14 08:00:00 6.1 22 Norte 36 Norte 0 -- -- 97
2020-03-14 07:00:00 6.8 19 Norte 30 Norte 0 -- -- 65
2020-03-14 06:00:00 10.3 23 Norte 29 Noroeste 0 -- -- 49
2020-03-14 05:00:00 8.3 17 Norte 26 Norte 0 -- -- 66
2020-03-14 04:00:00 7.5 15 Norte 25 Noroeste 0 -- -- 80
2020-03-14 03:00:00 11.3 19 Noroeste 27 Noroeste 0 -- -- 37
2020-03-14 02:00:00 7.1 14 Norte 26 Nordeste 0 -- -- 91
2020-03-14 01:00:00 9.5 14 Norte 24 Norte 0 -- -- 44
2020-03-14 00:00:00 11.6 17 Noroeste 26 Norte 0 -- -- 31
2020-03-13 23:00:00 12.6 14 Noroeste 17 Noroeste 0 -- -- 30
2020-03-13 22:00:00 13.2 9 Noroeste 17 Noroeste 0 -- -- 24
2020-03-13 21:00:00 13.5 17 Noroeste 22 Noroeste 0 -- -- 19
2020-03-13 20:00:00 13.6 18 Noroeste 21 Noroeste 0 -- -- 20
2020-03-13 19:00:00 13.7 13 Noroeste 15 Noroeste 0 -- -- 20
2020-03-13 18:00:00 14.8 6 Noroeste 15 Noroeste 0 -- -- 22
2020-03-13 17:00:00 18.4 8 Oeste 17 Oeste 0 -- -- 38
2020-03-13 16:00:00 19 5 Oeste 14 Oeste 0 -- -- 33
2020-03-13 15:00:00 19 4 Noroeste 19 Oeste 0 -- -- 36
2020-03-13 14:00:00 19.8 8 Oeste 13 Oeste 0 -- -- 38
2020-03-13 13:00:00 19.5 5 Noroeste 16 Noroeste 0 -- -- 34
2020-03-13 12:00:00 18.8 4 Norte 18 Este 0 -- -- 33
2020-03-13 11:00:00 17.9 10 Este 17 Nordeste 0 -- -- 29
2020-03-13 10:00:00 16.4 13 Nordeste 21 Nordeste 0 -- -- 26
2020-03-13 09:00:00 14.7 18 Nordeste 23 Nordeste 0 -- -- 24
2020-03-13 08:00:00 13.3 19 Nordeste 25 Nordeste 0 -- -- 23
2020-03-13 07:00:00 12.8 22 Nordeste 27 Nordeste 0 -- -- 24
2020-03-13 06:00:00 13.2 23 Nordeste 29 Nordeste 0 -- -- 23
2020-03-13 05:00:00 13 25 Nordeste 29 Nordeste 0 -- -- 24
2020-03-13 04:00:00 13 25 Nordeste 28 Nordeste 0 -- -- 24
2020-03-13 03:00:00 13.9 24 Nordeste 26 Nordeste 0 -- -- 19
2020-03-13 02:00:00 14.3 23 Nordeste 26 Nordeste 0 -- -- 18
2020-03-13 01:00:00 14.8 22 Nordeste 25 Nordeste 0 -- -- 17
2020-03-13 00:00:00 14.8 22 Nordeste 24 Nordeste 0 -- -- 17
2020-03-12 23:00:00 15.1 22 Nordeste 23 Nordeste 0 -- -- 17
2020-03-12 22:00:00 15 19 Nordeste 24 Nordeste 0 -- -- 17
2020-03-12 21:00:00 14.9 19 Nordeste 24 Nordeste 0 -- -- 17
2020-03-12 20:00:00 14.8 13 Este 14 Este 0 -- -- 18
2020-03-12 19:00:00 15.7 11 Este 13 Este 0 -- -- 20
2020-03-12 18:00:00 16.5 11 Este 19 Sudeste 0 -- -- 23
2020-03-12 17:00:00 17.6 14 Sudeste 23 Sudeste 0 -- -- 23
2020-03-12 16:00:00 18.2 14 Sudeste 26 Sudeste 0 -- -- 22
2020-03-12 15:00:00 20.1 15 Sudeste 27 Sudeste 0 -- -- 21
2020-03-12 14:00:00 20.2 15 Sudeste 30 Sudeste 0 -- -- 19
2020-03-12 13:00:00 19.8 15 Sudeste 31 Sudeste 0 -- -- 18
2020-03-12 12:00:00 18.5 21 Sudeste 35 Este 0 -- -- 19
2020-03-12 11:00:00 18.6 22 Este 37 Sudeste 0 -- -- 18
2020-03-12 10:00:00 18 23 Este 33 Este 0 -- -- 18
2020-03-12 09:00:00 16.7 23 Este 32 Este 0 -- -- 17
2020-03-12 08:00:00 15.1 21 Este 29 Este 0 -- -- 19
2020-03-12 07:00:00 14.5 20 Este 26 Este 0 -- -- 17
2020-03-12 06:00:00 14.6 23 Sudeste 27 Sudeste 0 -- -- 17
2020-03-12 05:00:00 14.7 19 Este 24 Este 0 -- -- 17
2020-03-12 04:00:00 14.4 18 Este 26 Este 0 -- -- 18
2020-03-12 03:00:00 14.1 19 Este 27 Este 0 -- -- 18
2020-03-12 02:00:00 14.2 23 Este 28 Este 0 -- -- 17
2020-03-12 01:00:00 14.4 23 Este 30 Este 0 -- -- 15
2020-03-12 00:00:00 14.3 23 Este 30 Este 0 -- -- 14
2020-03-11 23:00:00 14.2 19 Este 24 Este 0 -- -- 15
2020-03-11 22:00:00 14.1 19 Este 24 Este 0 -- -- 14
2020-03-11 21:00:00 14 19 Este 23 Este 0 -- -- 12
2020-03-11 20:00:00 13.9 17 Este 23 Este 0 -- -- 15
2020-03-11 19:00:00 14.5 15 Este 22 Este 0 -- -- 21
2020-03-11 18:00:00 15.9 16 Este 25 Sudeste 0 -- -- 23
2020-03-11 17:00:00 17.3 12 Sudeste 22 Sudeste 0 -- -- 23
2020-03-11 16:00:00 18.4 10 Sudeste 22 Sudeste 0 -- -- 23
2020-03-11 15:00:00 17.1 9 Sudeste 17 Sudeste 0 -- -- 22
2020-03-11 14:00:00 17.3 12 Sudeste 22 Sudeste 0 -- -- 23
2020-03-11 13:00:00 20.4 10 Sudeste 23 Sudeste 0 -- -- 18
2020-03-11 12:00:00 19.5 12 Sudeste 25 Sur 0 -- -- 18
2020-03-11 11:00:00 18 10 Sudeste 18 Sur 0 -- -- 17
2020-03-11 10:00:00 18.6 11 Sudeste 18 Sur 0 -- -- 16
2020-03-11 09:00:00 15.5 11 Sudeste 21 Sur 0 -- -- 17
2020-03-11 08:00:00 14.5 15 Sudeste 26 Sudeste 0 -- -- 15
2020-03-11 07:00:00 14 22 Sudeste 32 Sudeste 0 -- -- 13
2020-03-11 06:00:00 14.2 22 Sudeste 28 Sudeste 0 -- -- 14
2020-03-11 05:00:00 14.1 19 Sudeste 30 Sudeste 0 -- -- 18
2020-03-11 04:00:00 14.6 27 Sudeste 35 Sudeste 0 -- -- 21
2020-03-11 03:00:00 14.6 29 Este 35 Este 0 -- -- 7
2020-03-11 02:00:00 14.2 26 Este 32 Este 0 -- -- 6
2020-03-11 01:00:00 13.9 27 Este 32 Este 0 -- -- 6
2020-03-11 00:00:00 13.7 23 Este 30 Nordeste 0 -- -- 11
2020-03-10 23:00:00 13.7 27 Nordeste 35 Nordeste 0 -- -- 3
2020-03-10 22:00:00 13.5 31 Nordeste 36 Nordeste 0 -- -- 4
2020-03-10 21:00:00 13.4 29 Nordeste 36 Nordeste 0 -- -- 18
2020-03-10 20:00:00 13.4 27 Nordeste 39 Nordeste 0 -- -- 18
2020-03-10 19:00:00 13.8 22 Nordeste 28 Nordeste 0 -- -- 22
2020-03-10 18:00:00 14.2 17 Nordeste 23 Nordeste 0 -- -- 23
2020-03-10 17:00:00 16 8 Nordeste 14 Sur 0 -- -- 29
2020-03-10 16:00:00 18.7 5 Sudoeste 19 Oeste 0 -- -- 43
2020-03-10 15:00:00 20.4 5 Oeste 17 Sudeste 0 -- -- 36
2020-03-10 14:00:00 19.4 11 Sudeste 29 Sudeste 0 -- -- 26
2020-03-10 13:00:00 19.1 13 Este 30 Sudeste 0 -- -- 27
2020-03-10 12:00:00 18.3 19 Sudeste 33 Este 0 -- -- 23
2020-03-10 11:00:00 18.2 21 Este 33 Sudeste 0 -- -- 21
2020-03-10 10:00:00 17.4 21 Este 36 Sudeste 0 -- -- 22
2020-03-10 09:00:00 15.9 18 Este 27 Este 0 -- -- 24
2020-03-10 08:00:00 13.8 22 Este 29 Este 0 -- -- 25
2020-03-10 07:00:00 12.6 18 Nordeste 27 Nordeste 0 -- -- 26
2020-03-10 06:00:00 12.2 19 Nordeste 30 Nordeste 0 -- -- 28
2020-03-10 05:00:00 12.8 21 Este 29 Este 0 -- -- 27
2020-03-10 04:00:00 13.1 18 Este 34 Este 0 -- -- 27
2020-03-10 03:00:00 13.1 21 Este 36 Este 0 -- -- 27
2020-03-10 02:00:00 13.8 29 Sudeste 48 Este 0 -- -- 24
2020-03-10 01:00:00 13 37 Este 50 Este 0 -- -- 24
2020-03-10 00:00:00 12.7 32 Este 47 Este 0 -- -- 31
2020-03-09 23:00:00 12.8 33 Este 49 Este 0 -- -- 30
2020-03-09 22:00:00 12.9 33 Este 41 Este 0 -- -- 31
2020-03-09 21:00:00 13.1 23 Este 31 Este 0 -- -- 30
2020-03-09 20:00:00 13.2 12 Nordeste 15 Nordeste 0 -- -- 30
2020-03-09 19:00:00 13.8 7 Este 14 Este 0 -- -- 28
2020-03-09 18:00:00 15 10 Este 24 Sudeste 0 -- -- 27
2020-03-09 17:00:00 15.7 16 Sudeste 34 Este 0 -- -- 25
2020-03-09 16:00:00 16.5 19 Sudeste 36 Este 0 -- -- 24
2020-03-09 15:00:00 16.9 23 Sudeste 42 Sudeste 0 -- -- 24
2020-03-09 14:00:00 16.7 30 Sudeste 45 Este 0 -- -- 24
2020-03-09 13:00:00 16.6 35 Sudeste 47 Este 0 -- -- 24
2020-03-09 12:00:00 16.8 34 Este 55 Este 0 -- -- 24
2020-03-09 11:00:00 16.6 33 Este 54 Este 0 -- -- 26
2020-03-09 10:00:00 15.6 41 Este 54 Este 0 -- -- 27
2020-03-09 09:00:00 14.9 35 Este 54 Este 0 -- -- 27
2020-03-09 08:00:00 14 31 Este 44 Este 0 -- -- 26
2020-03-09 07:00:00 12.5 29 Este 42 Este 0 -- -- 26
2020-03-09 06:00:00 12.3 32 Nordeste 40 Nordeste 0 -- -- 26
2020-03-09 05:00:00 12.6 33 Nordeste 45 Nordeste 0 -- -- 24
2020-03-09 04:00:00 11.1 39 Nordeste 49 Este 0 -- -- 33
2020-03-09 03:00:00 11.7 40 Nordeste 53 Nordeste 0 -- -- 33
2020-03-09 02:00:00 14.6 36 Este 51 Este 0 -- -- 22
2020-03-09 01:00:00 14.6 34 Este 47 Este 0 -- -- 21
2020-03-09 00:00:00 14.8 35 Este 44 Este 0 -- -- 22